USHH 171700Z 00000MPS CAVOK 15/07 Q0997 R06/010060 NOSIG
QNH:(hPa/inHg/mmHg)997 / 29.44 / 748
QFE:(hPa/inHg/mmHg)992 / 29.29 / 744
Temperature15
Dew Point7
Visibility> 10000
WeatherCAVOK
Cloud Cover
Transition Height800 m./2800 ft.
Transition LevelFL50
SQUAWK